sensor_id;sensor_type;location;lat;lon;timestamp;P1;durP1;ratioP1;P2;durP2;ratioP2
57893;SDS011;43710;47.460;19.034;2023-10-31T13:32:41;9.02;;;4.68;;
57893;SDS011;43710;47.460;19.034;2023-10-31T13:35:44;8.40;;;4.43;;
57893;SDS011;43710;47.460;19.034;2023-10-31T13:38:46;12.45;;;4.50;;
57893;SDS011;43710;47.460;19.034;2023-10-31T13:41:50;6.22;;;4.00;;
57893;SDS011;43710;47.460;19.034;2023-10-31T13:44:52;5.85;;;3.55;;
57893;SDS011;43710;47.460;19.034;2023-10-31T13:47:55;5.82;;;3.40;;
57893;SDS011;43710;47.460;19.034;2023-10-31T13:50:57;4.20;;;2.45;;
57893;SDS011;43710;47.460;19.034;2023-10-31T13:54:00;3.40;;;2.08;;
57893;SDS011;43710;47.460;19.034;2023-10-31T13:57:02;3.92;;;2.10;;
57893;SDS011;43710;47.460;19.034;2023-10-31T14:00:05;5.62;;;2.03;;
57893;SDS011;43710;47.460;19.034;2023-10-31T14:03:13;1.50;;;1.40;;
57893;SDS011;43710;47.460;19.034;2023-10-31T14:06:15;2.03;;;1.37;;
57893;SDS011;43710;47.460;19.034;2023-10-31T14:09:19;1.98;;;1.65;;
57893;SDS011;43710;47.460;19.034;2023-10-31T14:12:21;5.03;;;2.45;;
57893;SDS011;43710;47.460;19.034;2023-10-31T14:15:24;2.15;;;1.60;;
57893;SDS011;43710;47.460;19.034;2023-10-31T14:18:27;1.80;;;1.30;;
57893;SDS011;43710;47.460;19.034;2023-10-31T14:21:29;1.48;;;1.20;;
57893;SDS011;43710;47.460;19.034;2023-10-31T14:24:31;3.05;;;1.23;;
57893;SDS011;43710;47.460;19.034;2023-10-31T14:27:34;2.65;;;1.20;;
57893;SDS011;43710;47.460;19.034;2023-10-31T14:30:36;2.10;;;1.12;;
57893;SDS011;43710;47.460;19.034;2023-10-31T14:33:39;1.95;;;1.17;;
57893;SDS011;43710;47.460;19.034;2023-10-31T14:36:42;1.50;;;1.20;;
57893;SDS011;43710;47.460;19.034;2023-10-31T14:39:44;1.08;;;0.90;;
57893;SDS011;43710;47.460;19.034;2023-10-31T14:42:47;3.50;;;1.50;;
57893;SDS011;43710;47.460;19.034;2023-10-31T14:45:50;1.67;;;1.40;;
57893;SDS011;43710;47.460;19.034;2023-10-31T14:48:53;2.83;;;1.40;;
57893;SDS011;43710;47.460;19.034;2023-10-31T14:51:55;1.83;;;1.15;;
57893;SDS011;43710;47.460;19.034;2023-10-31T14:54:57;1.77;;;1.30;;
57893;SDS011;43710;47.460;19.034;2023-10-31T14:58:00;2.08;;;1.20;;
57893;SDS011;43710;47.460;19.034;2023-10-31T15:01:02;2.45;;;1.20;;
57893;SDS011;43710;47.460;19.034;2023-10-31T15:04:06;4.47;;;1.00;;
57893;SDS011;43710;47.460;19.034;2023-10-31T15:07:08;3.53;;;1.40;;
57893;SDS011;43710;47.460;19.034;2023-10-31T15:10:11;1.95;;;1.60;;
57893;SDS011;43710;47.460;19.034;2023-10-31T15:13:14;1.83;;;1.52;;
57893;SDS011;43710;47.460;19.034;2023-10-31T15:16:16;3.80;;;1.40;;
57893;SDS011;43710;47.460;19.034;2023-10-31T15:19:19;1.48;;;1.23;;
57893;SDS011;43710;47.460;19.034;2023-10-31T15:22:21;1.37;;;1.27;;
57893;SDS011;43710;47.460;19.034;2023-10-31T15:25:24;1.55;;;1.35;;
57893;SDS011;43710;47.460;19.034;2023-10-31T15:28:28;2.25;;;1.40;;
57893;SDS011;43710;47.460;19.034;2023-10-31T15:31:31;2.03;;;1.30;;
57893;SDS011;43710;47.460;19.034;2023-10-31T15:34:33;2.28;;;1.45;;
57893;SDS011;43710;47.460;19.034;2023-10-31T15:37:35;2.65;;;1.33;;
57893;SDS011;43710;47.460;19.034;2023-10-31T15:40:38;3.10;;;1.60;;
57893;SDS011;43710;47.460;19.034;2023-10-31T15:43:40;1.80;;;1.48;;
57893;SDS011;43710;47.460;19.034;2023-10-31T15:46:43;2.30;;;1.52;;
57893;SDS011;43710;47.460;19.034;2023-10-31T15:49:45;1.65;;;1.52;;
57893;SDS011;43710;47.460;19.034;2023-10-31T15:52:47;2.22;;;1.40;;
57893;SDS011;43710;47.460;19.034;2023-10-31T15:55:50;1.58;;;1.33;;
57893;SDS011;43710;47.460;19.034;2023-10-31T15:58:52;4.18;;;1.42;;
57893;SDS011;43710;47.460;19.034;2023-10-31T16:01:56;1.95;;;1.50;;
